createdAt,value
2017-11-19T00:00:18.410Z,73.41
2017-11-19T00:02:46.036Z,73.45
2017-11-19T00:05:13.732Z,73.49
2017-11-19T00:07:41.407Z,72.91
2017-11-19T00:10:09.165Z,73.17
2017-11-19T00:12:36.695Z,72.84
2017-11-19T00:15:04.299Z,73.03
2017-11-19T00:17:31.850Z,73.23
2017-11-19T00:19:59.655Z,73.42
2017-11-19T00:22:27.400Z,73.02
2017-11-19T00:24:54.987Z,72.83
2017-11-19T00:27:22.605Z,72.57
2017-11-19T00:29:50.266Z,72.30
2017-11-19T00:32:17.948Z,72.29
2017-11-19T00:34:45.465Z,72.00
2017-11-19T00:37:12.983Z,72.16
2017-11-19T00:39:40.645Z,72.23
2017-11-19T00:42:08.186Z,71.67
2017-11-19T00:44:35.750Z,71.96
2017-11-19T00:47:03.333Z,71.62
2017-11-19T00:49:30.850Z,71.20
2017-11-19T00:51:58.455Z,71.27
2017-11-19T00:54:26.073Z,71.49
2017-11-19T00:56:53.719Z,71.25
2017-11-19T00:59:21.317Z,71.36
2017-11-19T01:01:48.870Z,71.11
2017-11-19T01:04:16.379Z,71.33
2017-11-19T01:06:43.916Z,71.19
2017-11-19T01:09:11.495Z,71.49
2017-11-19T01:11:39.061Z,71.33
2017-11-19T01:14:06.676Z,71.99
2017-11-19T01:16:34.243Z,71.39
2017-11-19T01:19:01.788Z,71.56
2017-11-19T01:21:29.371Z,71.58
2017-11-19T01:23:57.011Z,71.59
2017-11-19T01:26:24.559Z,71.60
2017-11-19T01:28:52.076Z,71.47
2017-11-19T01:31:19.654Z,71.39
2017-11-19T01:33:47.199Z,71.66
2017-11-19T01:36:14.751Z,71.56
2017-11-19T01:38:42.345Z,71.49
2017-11-19T01:41:09.883Z,71.70
2017-11-19T01:43:37.476Z,71.74
2017-11-19T01:46:05.132Z,71.18
2017-11-19T01:48:32.664Z,70.99
2017-11-19T01:51:00.218Z,71.22
2017-11-19T01:53:27.826Z,71.32
2017-11-19T01:55:55.355Z,70.93
2017-11-19T01:58:22.889Z,70.74
2017-11-19T02:00:50.586Z,71.04
2017-11-19T02:03:18.164Z,71.46
2017-11-19T02:05:45.715Z,71.39
2017-11-19T02:08:13.363Z,71.43
2017-11-19T02:10:40.888Z,71.10
2017-11-19T02:13:08.451Z,70.89
2017-11-19T02:15:36.097Z,71.12
2017-11-19T02:18:03.735Z,71.01
2017-11-19T02:20:31.247Z,70.45
2017-11-19T02:22:58.839Z,70.08
2017-11-19T02:25:26.366Z,69.86
2017-11-19T02:27:53.891Z,70.50
2017-11-19T02:30:21.467Z,70.52
2017-11-19T02:32:49.003Z,70.46
2017-11-19T02:35:16.540Z,70.91
2017-11-19T02:37:44.184Z,71.27
2017-11-19T02:40:11.790Z,70.59
2017-11-19T02:42:39.322Z,71.16
2017-11-19T02:45:06.953Z,70.56
2017-11-19T02:47:34.508Z,70.72
2017-11-19T02:50:02.027Z,70.48
2017-11-19T02:52:29.604Z,70.26
2017-11-19T02:54:57.335Z,70.62
2017-11-19T02:57:24.883Z,70.70
2017-11-19T02:59:52.475Z,71.08
2017-11-19T03:02:20.146Z,70.90
2017-11-19T03:04:47.677Z,71.51
2017-11-19T03:07:15.219Z,70.73
2017-11-19T03:09:42.804Z,70.75
2017-11-19T03:12:10.411Z,70.62
2017-11-19T03:14:37.944Z,71.13
2017-11-19T03:17:05.507Z,70.52
2017-11-19T03:19:33.023Z,70.67
2017-11-19T03:22:00.530Z,70.28
2017-11-19T03:24:28.119Z,70.28
2017-11-19T03:26:55.694Z,70.62
2017-11-19T03:29:23.326Z,70.12
2017-11-19T03:31:50.947Z,70.63
2017-11-19T03:34:18.530Z,69.91
2017-11-19T03:36:46.094Z,70.03
2017-11-19T03:39:13.683Z,70.69
2017-11-19T03:41:41.220Z,71.09
2017-11-19T03:44:08.795Z,70.71
2017-11-19T03:46:36.399Z,70.42
2017-11-19T03:49:04.192Z,70.68
2017-11-19T03:51:31.703Z,70.47
2017-11-19T03:53:59.290Z,70.59
2017-11-19T03:56:26.865Z,70.69
2017-11-19T03:58:54.379Z,70.55
2017-11-19T04:01:22.001Z,70.36
2017-11-19T04:03:49.523Z,70.32
2017-11-19T04:06:17.205Z,70.58
2017-11-19T04:08:44.798Z,70.88
2017-11-19T04:11:12.323Z,70.77
2017-11-19T04:13:39.884Z,70.97
2017-11-19T04:16:07.480Z,70.87
2017-11-19T04:18:35.071Z,70.84
2017-11-19T04:21:02.648Z,71.00
2017-11-19T04:23:30.236Z,70.50
2017-11-19T04:25:57.845Z,71.63
2017-11-19T04:28:25.427Z,71.30
2017-11-19T04:30:53.161Z,71.06
2017-11-19T04:33:20.685Z,71.44
2017-11-19T04:35:48.229Z,71.35
2017-11-19T04:38:15.816Z,71.98
2017-11-19T04:40:43.564Z,72.27
2017-11-19T04:43:11.117Z,72.02
2017-11-19T04:45:38.706Z,71.96
2017-11-19T04:48:06.275Z,71.96
2017-11-19T04:50:33.818Z,71.84
2017-11-19T04:53:01.392Z,71.80
2017-11-19T04:55:28.923Z,72.23
2017-11-19T04:57:56.455Z,72.29
2017-11-19T05:00:24.108Z,72.29
2017-11-19T05:02:51.691Z,72.19
2017-11-19T05:05:19.317Z,72.45
2017-11-19T05:07:46.905Z,72.85
2017-11-19T05:10:14.440Z,72.93
2017-11-19T05:12:41.987Z,72.60
2017-11-19T05:15:09.644Z,72.95
2017-11-19T05:17:37.244Z,72.96
2017-11-19T05:20:04.797Z,72.94
2017-11-19T05:22:32.399Z,73.08
2017-11-19T05:24:59.968Z,72.84
2017-11-19T05:27:27.490Z,72.67
2017-11-19T05:29:55.066Z,72.47
2017-11-19T05:32:22.723Z,72.40
2017-11-19T05:34:50.253Z,72.31
2017-11-19T05:37:17.788Z,71.92
2017-11-19T05:39:45.382Z,72.17
2017-11-19T05:42:12.916Z,71.72
2017-11-19T05:44:40.513Z,71.52
2017-11-19T05:47:08.087Z,71.46
2017-11-19T05:49:35.646Z,71.36
2017-11-19T05:52:03.265Z,71.19
2017-11-19T05:54:30.863Z,70.84
2017-11-19T05:56:58.390Z,70.76
2017-11-19T05:59:26.187Z,70.88
2017-11-19T06:01:53.802Z,71.15
2017-11-19T06:04:21.394Z,70.93
2017-11-19T06:06:49.163Z,70.79
2017-11-19T06:09:16.878Z,70.66
2017-11-19T06:11:44.632Z,70.36
2017-11-19T06:14:12.367Z,70.53
2017-11-19T06:16:40.011Z,70.10
2017-11-19T06:19:07.564Z,69.96
2017-11-19T06:21:36.041Z,69.93
2017-11-19T06:24:04.119Z,69.64
2017-11-19T06:26:31.910Z,69.83
2017-11-19T06:28:59.717Z,70.05
2017-11-19T06:31:27.483Z,69.76
2017-11-19T06:33:55.082Z,69.79
2017-11-19T06:36:22.654Z,69.72
2017-11-19T06:38:50.267Z,69.74
2017-11-19T06:41:19.349Z,69.57
2017-11-19T06:43:46.965Z,69.87
2017-11-19T06:46:15.368Z,69.68
2017-11-19T06:49:07.727Z,69.74
2017-11-19T06:51:36.158Z,69.74
2017-11-19T06:54:04.131Z,69.62
2017-11-19T06:56:31.817Z,69.61
2017-11-19T06:58:59.475Z,69.36
2017-11-19T07:01:27.056Z,68.97
2017-11-19T07:03:54.881Z,68.63
2017-11-19T07:06:22.765Z,68.45
2017-11-19T07:08:51.261Z,68.44
2017-11-19T07:11:18.878Z,67.96
2017-11-19T07:13:46.615Z,68.15
2017-11-19T07:16:14.292Z,67.87
2017-11-19T07:18:42.556Z,67.95
2017-11-19T07:21:10.095Z,67.97
2017-11-19T07:23:37.658Z,67.63
2017-11-19T07:26:05.444Z,67.71
2017-11-19T07:28:33.364Z,67.29
2017-11-19T07:31:01.543Z,66.99
2017-11-19T07:33:29.211Z,66.83
2017-11-19T07:35:57.032Z,67.11
2017-11-19T07:38:24.703Z,66.55
2017-11-19T07:40:52.534Z,70.63
2017-11-19T07:43:20.477Z,66.54
2017-11-19T07:45:48.155Z,65.64
2017-11-19T07:48:15.964Z,65.16
2017-11-19T07:50:43.999Z,70.07
2017-11-19T07:53:11.627Z,64.25
2017-11-19T07:55:39.270Z,69.45
2017-11-19T07:58:06.905Z,63.36
2017-11-19T08:00:34.570Z,63.47
2017-11-19T08:03:02.243Z,62.92
2017-11-19T08:05:29.862Z,62.58
2017-11-19T08:07:58.238Z,63.17
2017-11-19T08:10:25.871Z,62.60
2017-11-19T08:12:53.650Z,61.67
2017-11-19T08:15:22.803Z,61.42
2017-11-19T08:21:28.269Z,61.88
2017-11-19T08:24:00.345Z,61.54
2017-11-19T08:40:03.350Z,59.39
2017-11-19T08:42:31.077Z,60.09
2017-11-19T08:44:59.400Z,59.52
2017-11-19T08:47:28.379Z,59.18
2017-11-19T08:49:56.074Z,59.77
2017-11-19T08:52:23.840Z,59.85
2017-11-19T08:54:51.471Z,60.33
2017-11-19T08:57:20.062Z,60.74
2017-11-19T08:59:47.899Z,60.79
2017-11-19T09:02:15.659Z,61.32
2017-11-19T09:04:43.204Z,62.10
2017-11-19T09:07:11.110Z,62.38
2017-11-19T09:09:38.684Z,63.07
2017-11-19T09:12:07.095Z,62.67
2017-11-19T09:14:34.860Z,65.59
2017-11-19T09:17:02.447Z,64.03
2017-11-19T09:19:30.025Z,63.95
2017-11-19T09:21:57.651Z,64.01
2017-11-19T09:24:26.463Z,63.74
2017-11-19T09:26:54.467Z,64.47
2017-11-19T09:29:22.090Z,64.39
2017-11-19T09:31:49.770Z,63.93
2017-11-19T09:34:18.905Z,63.90
2017-11-19T09:36:46.697Z,63.61
2017-11-19T09:39:14.621Z,64.17
2017-11-19T09:41:46.085Z,63.78
2017-11-19T09:44:13.759Z,64.23
2017-11-19T09:46:42.785Z,64.13
2017-11-19T09:49:11.280Z,64.38
2017-11-19T09:51:38.866Z,64.40
2017-11-19T09:54:08.534Z,63.42
2017-11-19T09:56:36.228Z,63.00
2017-11-19T09:59:05.907Z,62.69
2017-11-19T10:01:33.663Z,62.56
2017-11-19T10:04:01.337Z,63.03
2017-11-19T10:06:29.457Z,63.56
2017-11-19T10:08:57.914Z,64.27
2017-11-19T10:11:25.816Z,63.54
2017-11-19T10:13:54.351Z,62.90
2017-11-19T10:16:22.014Z,63.27
2017-11-19T10:18:49.627Z,63.59
2017-11-19T10:21:17.281Z,63.43
2017-11-19T10:23:44.996Z,63.77
2017-11-19T10:26:12.879Z,62.92
2017-11-19T10:28:43.113Z,63.01
2017-11-19T10:31:11.884Z,62.63
2017-11-19T10:36:15.508Z,63.47
2017-11-19T10:38:44.075Z,63.17
2017-11-19T10:41:11.716Z,63.73
2017-11-19T10:43:39.539Z,63.43
2017-11-19T10:46:07.116Z,63.72
2017-11-19T10:48:36.649Z,63.05
2017-11-19T10:51:08.973Z,62.72
2017-11-19T10:53:37.063Z,63.02
2017-11-19T10:56:05.382Z,63.14
2017-11-19T10:58:39.191Z,62.32
2017-11-19T11:01:08.119Z,62.52
2017-11-19T11:03:35.752Z,63.21
2017-11-19T11:06:05.311Z,62.88
2017-11-19T11:08:33.076Z,63.49
2017-11-19T11:11:01.839Z,63.49
2017-11-19T11:13:32.104Z,63.29
2017-11-19T11:19:16.337Z,63.74
2017-11-19T11:21:43.959Z,62.92
2017-11-19T11:24:16.599Z,62.83
2017-11-19T11:26:46.111Z,62.56
2017-11-19T11:29:13.734Z,62.93
2017-11-19T11:31:41.553Z,62.92
2017-11-19T11:34:09.254Z,63.31
2017-11-19T11:36:36.913Z,63.23
2017-11-19T11:39:04.561Z,63.22
2017-11-19T11:41:32.140Z,63.13
2017-11-19T11:44:00.608Z,63.77
2017-11-19T11:46:28.289Z,62.82
2017-11-19T11:48:56.002Z,63.83
2017-11-19T11:51:23.608Z,64.38
2017-11-19T11:53:51.216Z,63.84
2017-11-19T11:56:18.935Z,64.20
2017-11-19T11:58:46.556Z,63.67
2017-11-19T12:01:14.598Z,65.39
2017-11-19T12:03:42.187Z,65.14
2017-11-19T12:06:09.791Z,64.84
2017-11-19T12:08:37.428Z,64.86
2017-11-19T12:11:10.350Z,64.59
2017-11-19T12:13:38.015Z,65.11
2017-11-19T12:16:05.577Z,64.78
2017-11-19T12:18:33.119Z,65.44
2017-11-19T12:21:01.729Z,64.91
2017-11-19T12:23:32.296Z,64.52
2017-11-19T12:26:00.073Z,64.31
2017-11-19T12:28:28.945Z,64.93
2017-11-19T12:30:56.913Z,64.97
2017-11-19T12:33:24.496Z,64.93
2017-11-19T12:35:53.087Z,65.59
2017-11-19T12:38:20.687Z,65.33
2017-11-19T12:40:55.282Z,64.69
2017-11-19T12:43:22.882Z,64.54
2017-11-19T12:45:51.134Z,64.52
2017-11-19T12:48:20.772Z,64.64
2017-11-19T12:50:48.538Z,65.24
2017-11-19T12:53:18.888Z,64.33
2017-11-19T12:56:07.724Z,64.80
2017-11-19T12:58:38.431Z,64.28
2017-11-19T13:01:06.070Z,77.05
2017-11-19T13:03:34.394Z,73.96
2017-11-19T13:06:02.199Z,63.12
2017-11-19T13:08:29.804Z,61.75
2017-11-19T13:10:57.507Z,62.43
2017-11-19T13:13:25.093Z,62.04
2017-11-19T13:15:52.706Z,62.06
2017-11-19T13:18:20.341Z,62.88
2017-11-19T13:20:52.783Z,62.60
2017-11-19T13:23:20.859Z,63.55
2017-11-19T13:25:50.442Z,63.10
2017-11-19T13:28:18.033Z,62.86
2017-11-19T13:30:45.733Z,63.19
2017-11-19T13:33:13.846Z,63.13
2017-11-19T13:35:41.403Z,74.96
2017-11-19T13:38:09.061Z,63.09
2017-11-19T13:40:36.636Z,61.85
2017-11-19T13:43:06.061Z,62.95
2017-11-19T13:45:33.731Z,63.27
2017-11-19T13:48:01.344Z,63.00
2017-11-19T13:50:29.256Z,62.40
2017-11-19T13:52:56.844Z,62.36
2017-11-19T13:55:24.809Z,62.47
2017-11-19T13:57:52.585Z,62.44
2017-11-19T14:00:20.289Z,62.83
2017-11-19T14:02:47.852Z,62.78
2017-11-19T14:05:16.376Z,63.65
2017-11-19T14:07:46.219Z,64.29
2017-11-19T14:10:15.130Z,63.67
2017-11-19T14:12:44.940Z,62.74
2017-11-19T14:15:14.981Z,62.97
2017-11-19T14:17:44.999Z,63.11
2017-11-19T14:20:14.300Z,63.52
2017-11-19T14:22:43.128Z,66.00
2017-11-19T14:25:11.116Z,64.07
2017-11-19T14:27:41.240Z,63.92
2017-11-19T14:30:13.527Z,64.34
2017-11-19T14:32:47.729Z,64.93
2017-11-19T14:35:16.839Z,64.61
2017-11-19T14:37:55.107Z,66.97
2017-11-19T14:40:25.282Z,66.51
2017-11-19T14:42:54.397Z,71.96
2017-11-19T14:45:23.066Z,66.70
2017-11-19T14:47:53.249Z,71.59
2017-11-19T14:50:21.858Z,66.45
2017-11-19T14:52:51.058Z,64.79
2017-11-19T14:55:21.000Z,66.45
2017-11-19T14:57:51.014Z,69.68
2017-11-19T15:00:20.324Z,65.86
2017-11-19T15:02:51.535Z,65.93
2017-11-19T15:05:22.814Z,67.30
2017-11-19T15:07:58.055Z,65.35
2017-11-19T15:10:29.574Z,65.47
2017-11-19T15:12:59.367Z,65.22
2017-11-19T15:15:30.436Z,65.61
2017-11-19T15:17:58.740Z,65.77
2017-11-19T15:20:29.250Z,66.65
2017-11-19T15:22:58.046Z,65.87
2017-11-19T15:25:34.457Z,67.03
2017-11-19T15:28:04.393Z,66.20
2017-11-19T15:30:34.145Z,66.17
2017-11-19T15:33:03.908Z,66.25
2017-11-19T15:35:33.649Z,66.49
2017-11-19T15:38:04.129Z,66.48
2017-11-19T15:40:33.010Z,66.84
2017-11-19T15:43:02.525Z,67.98
2017-11-19T15:45:32.178Z,68.15
2017-11-19T15:48:04.588Z,67.02
2017-11-19T15:50:36.090Z,67.11
2017-11-19T15:53:19.876Z,66.26
2017-11-19T15:56:05.232Z,67.10
2017-11-19T15:58:36.144Z,65.99
2017-11-19T16:01:04.092Z,66.48
2017-11-19T16:03:31.789Z,67.34
2017-11-19T16:05:59.906Z,66.64
2017-11-19T16:08:47.579Z,66.15
2017-11-19T16:14:44.322Z,66.48
2017-11-19T16:17:13.235Z,66.91
2017-11-19T16:19:40.809Z,66.97
2017-11-19T16:22:08.413Z,67.92
2017-11-19T16:24:36.009Z,67.84
2017-11-19T16:27:08.122Z,67.21
2017-11-19T16:29:35.832Z,67.74
2017-11-19T16:32:04.618Z,66.86
2017-11-19T16:34:32.261Z,67.46
2017-11-19T16:36:59.921Z,67.61
2017-11-19T16:39:27.779Z,67.65
2017-11-19T16:41:55.589Z,67.14
2017-11-19T16:44:23.505Z,66.67
2017-11-19T16:46:54.067Z,69.90
2017-11-19T16:49:21.754Z,68.23
2017-11-19T16:51:49.623Z,66.87
2017-11-19T16:54:18.562Z,71.15
2017-11-19T16:56:48.098Z,65.87
2017-11-19T16:59:16.147Z,65.60
2017-11-19T17:01:43.906Z,65.86
2017-11-19T17:04:11.564Z,65.26
2017-11-19T17:06:43.559Z,65.86
2017-11-19T17:09:11.157Z,65.59
2017-11-19T17:11:40.393Z,65.84
2017-11-19T17:14:08.117Z,65.99
2017-11-19T17:16:35.792Z,65.89
2017-11-19T17:19:03.386Z,66.03
2017-11-19T17:21:34.279Z,65.99
2017-11-19T17:24:02.168Z,65.96
2017-11-19T17:26:30.271Z,65.87
2017-11-19T17:28:57.923Z,65.43
2017-11-19T17:31:25.578Z,77.00
2017-11-19T17:33:53.174Z,67.83
2017-11-19T17:36:26.404Z,66.29
2017-11-19T17:41:31.101Z,65.95
2017-11-19T17:43:58.707Z,66.53
2017-11-19T17:46:27.536Z,65.53
2017-11-19T17:48:55.732Z,64.62
2017-11-19T17:51:23.329Z,64.22
2017-11-19T17:54:09.360Z,64.69
2017-11-19T18:14:38.796Z,65.12
2017-11-19T18:17:08.763Z,69.53
2017-11-19T18:19:37.284Z,66.70
2017-11-19T18:22:15.110Z,64.72
2017-11-19T18:24:45.826Z,65.33
2017-11-19T18:27:16.981Z,66.01
2017-11-19T18:29:49.510Z,65.59
2017-11-19T18:32:17.155Z,64.93
2017-11-19T18:34:45.032Z,64.11
2017-11-19T18:37:25.146Z,64.52
2017-11-19T18:39:53.341Z,64.32
2017-11-19T18:42:33.052Z,64.92
2017-11-19T18:47:58.748Z,64.48
2017-11-19T18:50:35.070Z,65.64
2017-11-19T18:56:48.799Z,64.71
2017-11-19T18:59:16.760Z,65.01
2017-11-19T19:01:44.498Z,64.32
2017-11-19T19:04:12.964Z,64.92
2017-11-19T19:06:40.610Z,65.11
2017-11-19T19:09:08.319Z,65.46
2017-11-19T19:11:35.918Z,64.83
2017-11-19T19:14:03.688Z,65.47
2017-11-19T19:16:31.448Z,66.43
2017-11-19T19:18:59.303Z,65.87
2017-11-19T19:25:05.829Z,66.01
2017-11-19T19:27:40.760Z,65.87
2017-11-19T19:30:10.549Z,66.27
2017-11-19T19:32:39.875Z,65.90
2017-11-19T19:35:07.532Z,65.34
2017-11-19T19:37:35.843Z,66.18
2017-11-19T19:40:19.573Z,66.68
2017-11-19T19:42:50.860Z,66.71
2017-11-19T19:45:18.530Z,67.49
2017-11-19T19:58:20.247Z,68.43
2017-11-19T20:00:51.875Z,68.55
2017-11-19T20:03:22.065Z,69.60
2017-11-19T20:44:29.325Z,73.42
2017-11-19T20:46:58.788Z,73.41
2017-11-19T20:49:28.955Z,73.52
2017-11-19T20:51:57.646Z,73.18
2017-11-19T20:54:27.471Z,73.01
2017-11-19T20:56:55.141Z,74.11
2017-11-19T20:59:24.600Z,73.28
2017-11-19T21:01:54.001Z,73.12
2017-11-19T21:04:23.736Z,73.58
2017-11-19T21:06:53.700Z,73.73
2017-11-19T21:09:32.873Z,73.67
2017-11-19T21:12:01.652Z,73.49
2017-11-19T21:14:33.699Z,74.52
2017-11-19T21:17:01.847Z,74.73
2017-11-19T21:19:41.694Z,73.76
2017-11-19T21:22:25.888Z,73.51
2017-11-19T21:24:56.513Z,72.74
2017-11-19T21:27:24.195Z,72.32
2017-11-19T21:29:53.094Z,72.92
2017-11-19T21:32:23.905Z,73.00
2017-11-19T21:34:54.789Z,72.37
2017-11-19T21:37:24.651Z,72.57
2017-11-19T21:39:55.533Z,72.48
2017-11-19T21:45:09.746Z,72.42
2017-11-19T22:36:35.819Z,73.57
2017-11-19T22:46:12.893Z,74.17
2017-11-19T22:48:43.046Z,73.90
2017-11-19T22:51:21.361Z,73.78
2017-11-19T23:00:47.394Z,75.52
2017-11-19T23:03:32.826Z,74.90
2017-11-19T23:10:00.832Z,74.78
2017-11-19T23:12:30.348Z,74.69
2017-11-19T23:14:59.804Z,75.31
2017-11-19T23:24:29.947Z,75.40
2017-11-19T23:27:07.440Z,76.02
2017-11-19T23:29:36.168Z,75.54
2017-11-19T23:32:05.132Z,75.46
2017-11-19T23:34:34.851Z,76.24
2017-11-19T23:47:48.264Z,75.46
2017-11-19T23:50:32.898Z,75.59
